createdAt,value
2017-09-13T00:01:11.437Z,74.45
2017-09-13T00:03:37.653Z,74.83
2017-09-13T00:06:03.887Z,74.93
2017-09-13T00:08:30.117Z,74.61
2017-09-13T00:10:56.347Z,74.27
2017-09-13T00:13:22.587Z,74.21
2017-09-13T00:15:48.818Z,74.02
2017-09-13T00:18:15.023Z,73.89
2017-09-13T00:20:41.262Z,74.50
2017-09-13T00:23:07.490Z,74.33
2017-09-13T00:25:33.706Z,74.04
2017-09-13T00:27:59.941Z,74.13
2017-09-13T00:30:26.185Z,74.07
2017-09-13T00:32:52.408Z,72.99
2017-09-13T00:35:18.686Z,72.60
2017-09-13T00:37:44.876Z,73.04
2017-09-13T00:40:11.120Z,72.75
2017-09-13T00:42:37.352Z,72.64
2017-09-13T00:45:03.540Z,72.52
2017-09-13T00:47:29.772Z,71.84
2017-09-13T00:49:56.025Z,71.87
2017-09-13T00:52:22.250Z,72.44
2017-09-13T00:54:48.461Z,71.20
2017-09-13T00:57:14.708Z,71.43
2017-09-13T00:59:40.924Z,74.38
2017-09-13T01:02:07.151Z,74.62
2017-09-13T01:04:33.383Z,75.21
2017-09-13T01:06:59.630Z,75.13
2017-09-13T01:09:25.850Z,76.08
2017-09-13T01:11:52.088Z,76.01
2017-09-13T01:14:18.318Z,76.33
2017-09-13T01:16:44.546Z,76.10
2017-09-13T01:19:10.773Z,76.47
2017-09-13T01:21:36.989Z,74.82
2017-09-13T01:24:03.236Z,75.57
2017-09-13T01:26:29.455Z,76.38
2017-09-13T01:28:55.692Z,76.55
2017-09-13T01:31:21.925Z,76.45
2017-09-13T01:33:48.158Z,76.58
2017-09-13T01:36:14.379Z,76.72
2017-09-13T01:38:40.613Z,76.42
2017-09-13T01:41:06.844Z,76.40
2017-09-13T01:43:33.066Z,75.76
2017-09-13T01:45:59.293Z,75.68
2017-09-13T01:48:25.533Z,76.29
2017-09-13T01:50:51.763Z,77.05
2017-09-13T01:53:17.979Z,77.41
2017-09-13T01:55:44.204Z,77.70
2017-09-13T01:58:10.434Z,77.30
2017-09-13T02:00:36.676Z,77.24
2017-09-13T02:03:02.901Z,76.89
2017-09-13T02:05:29.142Z,76.24
2017-09-13T02:07:55.383Z,76.31
2017-09-13T02:10:21.596Z,76.13
2017-09-13T02:12:47.836Z,76.31
2017-09-13T02:15:14.064Z,76.23
2017-09-13T02:17:40.287Z,76.60
2017-09-13T02:20:06.517Z,76.71
2017-09-13T02:22:32.737Z,77.40
2017-09-13T02:24:58.977Z,77.17
2017-09-13T02:27:25.210Z,76.66
2017-09-13T02:29:51.430Z,75.87
2017-09-13T02:32:17.666Z,75.90
2017-09-13T02:34:43.882Z,76.78
2017-09-13T02:37:10.116Z,75.88
2017-09-13T02:39:36.342Z,75.89
2017-09-13T02:42:02.590Z,76.84
2017-09-13T02:44:28.809Z,76.75
2017-09-13T02:46:55.051Z,76.75
2017-09-13T02:49:21.279Z,77.22
2017-09-13T02:51:47.508Z,76.87
2017-09-13T02:54:13.734Z,78.12
2017-09-13T02:56:39.962Z,78.45
2017-09-13T02:59:06.187Z,78.56
2017-09-13T03:01:32.416Z,78.44
2017-09-13T03:03:58.625Z,78.70
2017-09-13T03:06:24.881Z,79.16
2017-09-13T03:08:51.125Z,79.09
2017-09-13T03:11:17.344Z,79.84
2017-09-13T03:13:43.582Z,79.69
2017-09-13T03:16:09.790Z,79.89
2017-09-13T03:18:36.034Z,79.98
2017-09-13T03:21:02.253Z,80.04
2017-09-13T03:23:28.494Z,79.85
2017-09-13T03:25:54.714Z,79.37
2017-09-13T03:28:20.941Z,79.20
2017-09-13T03:30:47.182Z,78.92
2017-09-13T03:33:13.421Z,78.81
2017-09-13T03:35:39.644Z,78.49
2017-09-13T03:38:05.876Z,79.31
2017-09-13T03:40:32.088Z,78.86
2017-09-13T03:42:58.329Z,78.84
2017-09-13T03:45:24.560Z,78.95
2017-09-13T03:47:50.780Z,78.67
2017-09-13T03:50:17.015Z,78.29
2017-09-13T03:52:43.273Z,77.97
2017-09-13T03:55:09.478Z,77.85
2017-09-13T03:57:35.707Z,78.00
2017-09-13T04:00:01.928Z,78.57
2017-09-13T04:02:28.163Z,78.36
2017-09-13T04:04:54.389Z,78.83
2017-09-13T04:07:20.632Z,79.69
2017-09-13T04:09:46.843Z,80.20
2017-09-13T04:12:13.102Z,80.85
2017-09-13T04:14:39.313Z,81.20
2017-09-13T04:17:05.538Z,80.64
2017-09-13T04:19:31.773Z,79.92
2017-09-13T04:21:57.994Z,79.09
2017-09-13T04:24:24.223Z,78.38
2017-09-13T04:26:50.462Z,78.22
2017-09-13T04:29:16.681Z,77.52
2017-09-13T04:31:42.912Z,76.64
2017-09-13T04:34:09.154Z,76.25
2017-09-13T04:36:35.381Z,75.83
2017-09-13T04:39:01.614Z,75.05
2017-09-13T04:41:27.858Z,74.54
2017-09-13T04:43:54.068Z,74.04
2017-09-13T04:46:20.299Z,73.53
2017-09-13T04:48:46.545Z,72.20
2017-09-13T04:51:12.766Z,69.16
2017-09-13T04:53:38.974Z,64.79
2017-09-13T04:56:05.209Z,63.79
2017-09-13T04:58:31.434Z,63.68
2017-09-13T05:00:57.671Z,61.87
2017-09-13T05:03:23.890Z,59.34
2017-09-13T05:05:50.181Z,56.66
2017-09-13T05:08:16.364Z,55.28
2017-09-13T05:10:42.600Z,55.45
2017-09-13T05:13:08.823Z,56.62
2017-09-13T05:15:35.051Z,57.16
2017-09-13T05:18:01.280Z,57.02
2017-09-13T05:20:27.501Z,56.99
2017-09-13T05:22:53.727Z,57.72
2017-09-13T05:25:19.969Z,57.60
2017-09-13T05:27:46.250Z,54.62
2017-09-13T05:30:12.419Z,52.97
2017-09-13T05:32:38.646Z,52.30
2017-09-13T05:35:04.908Z,51.00
2017-09-13T05:37:31.128Z,50.73
2017-09-13T05:39:57.367Z,50.50
2017-09-13T05:42:23.585Z,51.56
2017-09-13T05:44:49.818Z,53.64
2017-09-13T05:47:16.031Z,52.44
2017-09-13T05:49:42.270Z,49.82
2017-09-13T05:52:08.515Z,48.67
2017-09-13T05:54:34.717Z,46.74
2017-09-13T05:57:00.965Z,44.79
2017-09-13T05:59:27.190Z,45.23
2017-09-13T06:01:53.428Z,46.63
2017-09-13T06:04:19.656Z,45.61
2017-09-13T06:06:45.888Z,45.55
2017-09-13T06:09:12.094Z,45.17
2017-09-13T06:11:38.320Z,43.81
2017-09-13T06:14:04.582Z,44.66
2017-09-13T06:16:30.802Z,47.19
2017-09-13T06:18:57.019Z,45.40
2017-09-13T06:21:23.237Z,43.34
2017-09-13T06:23:49.474Z,41.42
2017-09-13T06:26:15.721Z,43.32
2017-09-13T06:28:41.953Z,43.04
2017-09-13T06:31:08.170Z,43.99
2017-09-13T06:33:34.408Z,44.37
2017-09-13T06:36:00.643Z,44.65
2017-09-13T06:38:26.790Z,45.94
2017-09-13T06:40:52.994Z,43.92
2017-09-13T06:43:19.219Z,41.18
2017-09-13T06:45:45.461Z,40.63
2017-09-13T06:48:11.632Z,41.69
2017-09-13T06:50:37.792Z,42.13
2017-09-13T06:53:04.149Z,43.30
2017-09-13T06:55:30.375Z,44.25
2017-09-13T06:57:56.610Z,46.17
2017-09-13T07:00:22.824Z,46.20
2017-09-13T07:02:49.068Z,45.95
2017-09-13T07:05:15.278Z,44.34
2017-09-13T07:07:41.513Z,41.58
2017-09-13T07:10:07.757Z,40.76
2017-09-13T07:12:40.376Z,39.40
2017-09-13T07:15:06.545Z,38.35
2017-09-13T07:17:32.794Z,38.08
2017-09-13T07:19:58.936Z,37.63
2017-09-13T07:22:25.144Z,38.95
2017-09-13T07:24:51.288Z,37.64
2017-09-13T07:27:17.444Z,37.55
2017-09-13T07:29:43.595Z,37.51
2017-09-13T07:32:09.739Z,36.68
2017-09-13T07:34:35.920Z,35.82
2017-09-13T07:37:02.087Z,35.57
2017-09-13T07:39:28.245Z,36.49
2017-09-13T07:41:54.417Z,36.66
2017-09-13T07:44:20.584Z,36.27
2017-09-13T07:46:46.722Z,36.48
2017-09-13T07:49:12.888Z,36.91
2017-09-13T07:51:39.054Z,37.12
2017-09-13T07:54:05.218Z,37.62
2017-09-13T07:56:31.380Z,36.92
2017-09-13T07:58:57.539Z,37.17
2017-09-13T08:01:23.700Z,38.01
2017-09-13T08:03:51.120Z,41.54
2017-09-13T08:06:17.284Z,44.01
2017-09-13T08:08:43.446Z,45.15
2017-09-13T08:11:09.772Z,44.82
2017-09-13T08:13:35.925Z,42.75
2017-09-13T08:16:02.074Z,40.40
2017-09-13T08:18:28.220Z,39.84
2017-09-13T08:20:54.374Z,39.51
2017-09-13T08:23:20.580Z,40.22
2017-09-13T08:25:46.809Z,39.67
2017-09-13T08:28:13.048Z,41.09
2017-09-13T08:30:39.264Z,42.40
2017-09-13T08:33:05.425Z,43.92
2017-09-13T08:35:31.616Z,41.57
2017-09-13T08:37:57.860Z,40.61
2017-09-13T08:40:24.094Z,41.34
2017-09-13T08:42:50.316Z,39.78
2017-09-13T08:45:16.557Z,39.32
2017-09-13T08:47:42.768Z,39.94
2017-09-13T08:50:09.019Z,40.25
2017-09-13T08:52:35.236Z,40.16
2017-09-13T08:55:01.385Z,39.69
2017-09-13T08:57:27.598Z,38.59
2017-09-13T08:59:53.829Z,36.45
2017-09-13T09:02:20.057Z,35.75
2017-09-13T09:04:46.192Z,35.96
2017-09-13T09:07:12.413Z,35.57
2017-09-13T09:09:38.637Z,35.29
2017-09-13T09:12:04.813Z,37.57
2017-09-13T09:14:31.007Z,37.92
2017-09-13T09:16:57.229Z,37.24
2017-09-13T09:19:23.455Z,36.35
2017-09-13T09:21:49.693Z,35.31
2017-09-13T09:24:15.921Z,36.46
2017-09-13T09:26:42.137Z,35.60
2017-09-13T09:29:08.367Z,34.00
2017-09-13T09:31:34.598Z,34.38
2017-09-13T09:34:00.845Z,34.88
2017-09-13T09:36:27.051Z,33.32
2017-09-13T09:38:53.295Z,33.95
2017-09-13T09:41:19.517Z,34.04
2017-09-13T09:43:45.749Z,33.62
2017-09-13T09:46:11.986Z,35.93
2017-09-13T09:48:38.203Z,32.58
2017-09-13T09:51:04.456Z,32.77
2017-09-13T09:53:30.663Z,32.14
2017-09-13T09:55:56.911Z,31.91
2017-09-13T09:58:23.122Z,32.93
2017-09-13T10:00:49.353Z,33.82
2017-09-13T10:03:15.592Z,33.00
2017-09-13T10:05:41.821Z,33.76
2017-09-13T10:08:08.036Z,34.07
2017-09-13T10:10:34.271Z,34.56
2017-09-13T10:13:00.501Z,34.11
2017-09-13T10:15:26.742Z,37.30
2017-09-13T10:17:52.959Z,38.65
2017-09-13T10:20:19.193Z,37.28
2017-09-13T10:22:45.423Z,35.68
2017-09-13T10:25:11.647Z,36.33
2017-09-13T10:27:37.884Z,36.38
2017-09-13T10:30:04.105Z,36.13
2017-09-13T10:32:30.342Z,38.64
2017-09-13T10:34:56.573Z,39.89
2017-09-13T10:37:22.805Z,41.61
2017-09-13T10:39:49.022Z,42.43
2017-09-13T10:42:15.275Z,42.43
2017-09-13T10:44:41.496Z,42.12
2017-09-13T10:47:07.713Z,38.99
2017-09-13T10:49:33.956Z,40.40
2017-09-13T10:52:00.178Z,41.24
2017-09-13T10:54:26.408Z,41.36
2017-09-13T10:56:52.627Z,38.39
2017-09-13T10:59:18.875Z,38.56
2017-09-13T11:01:45.042Z,37.17
2017-09-13T11:04:11.228Z,36.42
2017-09-13T11:06:37.460Z,35.45
2017-09-13T11:09:03.681Z,35.93
2017-09-13T11:11:29.923Z,36.52
2017-09-13T11:13:56.145Z,36.50
2017-09-13T11:16:22.381Z,35.71
2017-09-13T11:18:48.614Z,35.14
2017-09-13T11:21:14.837Z,35.99
2017-09-13T11:23:41.070Z,36.46
2017-09-13T11:26:07.305Z,35.33
2017-09-13T11:28:33.543Z,35.97
2017-09-13T11:31:01.232Z,35.11
2017-09-13T11:33:27.524Z,35.69
2017-09-13T11:35:53.751Z,34.88
2017-09-13T11:38:19.974Z,36.37
2017-09-13T11:40:46.206Z,36.18
2017-09-13T11:43:12.374Z,35.04
2017-09-13T11:45:38.554Z,34.91
2017-09-13T11:48:04.805Z,34.57
2017-09-13T11:50:30.968Z,33.48
2017-09-13T11:52:57.167Z,34.18
2017-09-13T11:55:23.396Z,35.34
2017-09-13T11:57:49.611Z,36.19
2017-09-13T12:00:15.860Z,37.12
2017-09-13T12:02:42.072Z,35.79
2017-09-13T12:05:08.302Z,35.98
2017-09-13T12:07:34.539Z,37.88
2017-09-13T12:10:00.778Z,36.93
2017-09-13T12:12:26.992Z,35.84
2017-09-13T12:14:53.254Z,35.83
2017-09-13T12:17:19.467Z,33.54
2017-09-13T12:19:45.696Z,33.78
2017-09-13T12:22:11.951Z,33.49
2017-09-13T12:24:38.146Z,34.33
2017-09-13T12:27:04.388Z,34.25
2017-09-13T12:29:30.654Z,33.79
2017-09-13T12:31:56.868Z,32.43
2017-09-13T12:34:23.051Z,32.29
2017-09-13T12:36:49.301Z,33.86
2017-09-13T12:39:15.534Z,35.17
2017-09-13T12:41:41.751Z,34.68
2017-09-13T12:44:08.003Z,33.40
2017-09-13T12:46:34.214Z,32.00
2017-09-13T12:49:00.496Z,31.01
2017-09-13T12:51:26.686Z,30.52
2017-09-13T12:53:52.891Z,29.31
2017-09-13T12:56:19.163Z,29.48
2017-09-13T12:58:45.373Z,30.28
2017-09-13T13:01:11.611Z,30.53
2017-09-13T13:03:37.831Z,30.96
2017-09-13T13:06:04.063Z,32.62
2017-09-13T13:08:30.250Z,32.61
2017-09-13T13:10:56.519Z,30.84
2017-09-13T13:13:22.746Z,31.05
2017-09-13T13:15:48.984Z,30.53
2017-09-13T13:18:15.215Z,31.16
2017-09-13T13:20:41.412Z,30.70
2017-09-13T13:23:07.637Z,30.76
2017-09-13T13:25:33.896Z,31.28
2017-09-13T13:28:00.123Z,32.61
2017-09-13T13:30:26.374Z,31.63
2017-09-13T13:32:52.608Z,31.19
2017-09-13T13:35:18.800Z,30.22
2017-09-13T13:37:45.025Z,31.34
2017-09-13T13:40:11.255Z,32.10
2017-09-13T13:42:37.491Z,32.77
2017-09-13T13:45:03.733Z,34.25
2017-09-13T13:47:29.957Z,34.96
2017-09-13T13:49:56.202Z,34.28
2017-09-13T13:52:22.423Z,32.70
2017-09-13T13:54:48.656Z,31.35
2017-09-13T13:57:14.878Z,31.60
2017-09-13T13:59:41.105Z,32.30
2017-09-13T14:02:07.355Z,32.39
2017-09-13T14:04:33.581Z,30.85
2017-09-13T14:06:59.789Z,31.58
2017-09-13T14:09:26.019Z,30.21
2017-09-13T14:11:52.265Z,28.95
2017-09-13T14:14:18.477Z,28.86
2017-09-13T14:16:44.703Z,30.32
2017-09-13T14:19:10.952Z,31.63
2017-09-13T14:21:37.171Z,33.41
2017-09-13T14:24:03.419Z,33.91
2017-09-13T14:26:29.633Z,32.51
2017-09-13T14:28:55.880Z,31.50
2017-09-13T14:31:22.130Z,30.82
2017-09-13T14:33:48.370Z,30.58
2017-09-13T14:36:15.071Z,31.42
2017-09-13T14:38:41.294Z,31.76
2017-09-13T14:41:07.517Z,31.54
2017-09-13T14:43:33.762Z,32.42
2017-09-13T14:45:59.988Z,33.22
2017-09-13T14:48:26.211Z,33.06
2017-09-13T14:50:52.446Z,33.48
2017-09-13T14:53:18.712Z,33.40
2017-09-13T14:55:44.891Z,33.38
2017-09-13T14:58:11.123Z,33.62
2017-09-13T15:00:37.361Z,34.25
2017-09-13T15:03:03.582Z,33.64
2017-09-13T15:05:29.829Z,34.34
2017-09-13T15:07:56.063Z,33.35
2017-09-13T15:10:22.273Z,33.61
2017-09-13T15:12:48.504Z,34.58
2017-09-13T15:15:14.751Z,34.60
2017-09-13T15:17:40.976Z,35.33
2017-09-13T15:20:07.211Z,34.62
2017-09-13T15:22:33.425Z,35.83
2017-09-13T15:24:59.723Z,35.59
2017-09-13T15:27:25.996Z,35.38
2017-09-13T15:29:52.221Z,35.18
2017-09-13T15:32:18.446Z,35.19
2017-09-13T15:34:44.686Z,35.36
2017-09-13T15:37:14.400Z,35.80
2017-09-13T15:39:41.725Z,36.62
2017-09-13T15:42:07.980Z,37.34
2017-09-13T15:44:34.201Z,38.68
2017-09-13T15:47:00.413Z,38.50
2017-09-13T15:49:26.650Z,39.28
2017-09-13T15:51:52.890Z,40.07
2017-09-13T15:54:19.114Z,40.57
2017-09-13T15:56:45.343Z,40.90
2017-09-13T15:59:11.579Z,41.01
2017-09-13T16:01:37.823Z,41.63
2017-09-13T16:04:04.030Z,41.58
2017-09-13T16:06:30.181Z,41.97
2017-09-13T16:08:56.400Z,42.07
2017-09-13T16:11:22.661Z,42.24
2017-09-13T16:13:48.849Z,42.42
2017-09-13T16:16:15.110Z,43.06
2017-09-13T16:18:41.374Z,43.06
2017-09-13T16:21:07.649Z,43.31
2017-09-13T16:23:33.872Z,44.33
2017-09-13T16:26:00.098Z,44.14
2017-09-13T16:28:26.334Z,43.79
2017-09-13T16:30:52.566Z,43.96
2017-09-13T16:33:18.763Z,44.07
2017-09-13T16:35:45.017Z,44.47
2017-09-13T16:38:11.259Z,44.28
2017-09-13T16:40:37.510Z,44.73
2017-09-13T16:43:03.737Z,44.87
2017-09-13T16:45:29.893Z,45.33
2017-09-13T16:47:56.109Z,45.21
2017-09-13T16:50:22.264Z,45.29
2017-09-13T16:52:48.428Z,45.38
2017-09-13T16:55:14.587Z,45.76
2017-09-13T16:57:40.779Z,46.15
2017-09-13T17:00:06.943Z,46.09
2017-09-13T17:02:33.113Z,45.94
2017-09-13T17:04:59.317Z,46.28
2017-09-13T17:07:25.470Z,45.95
2017-09-13T17:09:51.639Z,45.93
2017-09-13T17:12:17.789Z,46.89
2017-09-13T17:14:43.995Z,46.61
2017-09-13T17:17:10.242Z,46.53
2017-09-13T17:19:36.444Z,46.57
2017-09-13T17:22:02.696Z,46.68
2017-09-13T17:24:28.994Z,46.96
2017-09-13T17:26:55.261Z,46.96
2017-09-13T17:29:21.466Z,47.04
2017-09-13T17:31:47.692Z,47.55
2017-09-13T17:34:13.924Z,47.10
2017-09-13T17:36:40.169Z,47.66
2017-09-13T17:39:06.416Z,47.39
2017-09-13T17:41:32.607Z,47.62
2017-09-13T17:43:58.858Z,47.98
2017-09-13T17:46:25.083Z,48.20
2017-09-13T17:48:51.329Z,48.78
2017-09-13T17:51:17.558Z,49.10
2017-09-13T17:53:43.771Z,49.16
2017-09-13T17:56:09.982Z,49.68
2017-09-13T17:58:36.149Z,49.99
2017-09-13T18:01:02.340Z,50.03
2017-09-13T18:03:28.592Z,50.42
2017-09-13T18:05:54.795Z,51.62
2017-09-13T18:08:21.055Z,50.14
2017-09-13T18:10:47.283Z,49.59
2017-09-13T18:13:13.514Z,50.12
2017-09-13T18:15:39.735Z,50.46
2017-09-13T18:18:05.954Z,50.11
2017-09-13T18:20:32.191Z,50.60
2017-09-13T18:22:58.427Z,50.47
2017-09-13T18:25:24.641Z,50.58
2017-09-13T18:27:50.881Z,50.64
2017-09-13T18:30:17.080Z,51.47
2017-09-13T18:32:43.328Z,51.08
2017-09-13T18:35:09.549Z,52.01
2017-09-13T18:37:35.795Z,52.46
2017-09-13T18:40:02.030Z,52.31
2017-09-13T18:42:28.243Z,52.30
2017-09-13T18:44:54.502Z,52.85
2017-09-13T18:47:20.741Z,53.39
2017-09-13T18:49:46.948Z,53.99
2017-09-13T18:52:13.180Z,54.67
2017-09-13T18:54:39.395Z,54.78
2017-09-13T18:57:05.633Z,55.05
2017-09-13T18:59:31.846Z,55.52
2017-09-13T19:01:58.098Z,55.56
2017-09-13T19:04:24.281Z,55.81
2017-09-13T19:06:50.540Z,55.52
2017-09-13T19:09:16.804Z,55.79
2017-09-13T19:11:43.022Z,56.35
2017-09-13T19:14:09.195Z,56.80
2017-09-13T19:16:35.483Z,56.78
2017-09-13T19:19:01.709Z,57.41
2017-09-13T19:21:27.923Z,57.25
2017-09-13T19:23:54.149Z,57.23
2017-09-13T19:26:20.391Z,58.06
2017-09-13T19:28:46.771Z,59.11
2017-09-13T19:31:12.972Z,59.01
2017-09-13T19:33:39.176Z,59.42
2017-09-13T19:36:05.395Z,59.90
2017-09-13T19:38:31.663Z,59.25
2017-09-13T19:40:57.845Z,59.37
2017-09-13T19:43:24.112Z,59.66
2017-09-13T19:45:50.325Z,59.91
2017-09-13T19:48:16.577Z,59.04
2017-09-13T19:50:42.814Z,58.86
2017-09-13T19:53:09.009Z,58.62
2017-09-13T19:55:35.244Z,59.03
2017-09-13T19:58:01.486Z,59.93
2017-09-13T20:00:27.707Z,59.67
2017-09-13T20:02:53.936Z,60.82
2017-09-13T20:05:20.166Z,60.79
2017-09-13T20:07:46.392Z,61.15
2017-09-13T20:10:12.611Z,59.42
2017-09-13T20:12:38.844Z,58.95
2017-09-13T20:15:05.077Z,60.45
2017-09-13T20:17:31.311Z,62.53
2017-09-13T20:19:57.546Z,63.28
2017-09-13T20:22:23.800Z,63.35
2017-09-13T20:24:49.986Z,62.75
2017-09-13T20:27:16.244Z,63.33
2017-09-13T20:29:42.556Z,64.40
2017-09-13T20:32:08.780Z,64.84
2017-09-13T20:34:35.021Z,66.02
2017-09-13T20:37:01.258Z,66.09
2017-09-13T20:39:27.472Z,65.96
2017-09-13T20:41:53.726Z,66.82
2017-09-13T20:44:22.943Z,66.42
2017-09-13T20:46:49.148Z,67.19
2017-09-13T20:49:15.385Z,67.67
2017-09-13T20:51:41.656Z,66.60
2017-09-13T20:54:07.933Z,64.94
2017-09-13T20:56:34.218Z,64.57
2017-09-13T20:59:00.501Z,64.41
2017-09-13T21:01:26.709Z,64.24
2017-09-13T21:03:52.959Z,64.93
2017-09-13T21:06:19.181Z,65.49
2017-09-13T21:08:45.338Z,67.44
2017-09-13T21:11:11.534Z,67.98
2017-09-13T21:13:37.757Z,68.98
2017-09-13T21:16:04.014Z,69.78
2017-09-13T21:18:30.219Z,70.55
2017-09-13T21:20:56.463Z,71.00
2017-09-13T21:23:22.676Z,71.18
2017-09-13T21:25:48.904Z,71.07
2017-09-13T21:28:15.138Z,70.99
2017-09-13T21:30:41.377Z,71.27
2017-09-13T21:33:07.614Z,72.27
2017-09-13T21:35:33.831Z,72.09
2017-09-13T21:38:00.088Z,72.36
2017-09-13T21:40:26.386Z,73.02
2017-09-13T21:42:52.628Z,72.62
2017-09-13T21:45:18.848Z,72.85
2017-09-13T21:47:45.084Z,73.08
2017-09-13T21:50:11.320Z,73.35
2017-09-13T21:52:37.529Z,73.68
2017-09-13T21:55:03.768Z,73.82
2017-09-13T21:57:30.009Z,74.14
2017-09-13T21:59:56.240Z,74.25
2017-09-13T22:02:22.473Z,74.47
2017-09-13T22:04:48.693Z,74.21
2017-09-13T22:07:14.928Z,74.18
2017-09-13T22:09:41.142Z,73.78
2017-09-13T22:12:07.389Z,73.91
2017-09-13T22:14:33.604Z,73.93
2017-09-13T22:16:59.846Z,74.15
2017-09-13T22:19:26.079Z,73.86
2017-09-13T22:21:52.304Z,74.92
2017-09-13T22:24:18.540Z,74.99
2017-09-13T22:26:44.829Z,74.54
2017-09-13T22:29:11.100Z,74.58
2017-09-13T22:31:37.314Z,73.93
2017-09-13T22:34:03.553Z,74.19
2017-09-13T22:36:29.786Z,75.02
2017-09-13T22:38:56.039Z,75.24
2017-09-13T22:41:22.240Z,74.83
2017-09-13T22:43:48.468Z,75.57
2017-09-13T22:46:14.699Z,75.22
2017-09-13T22:48:40.930Z,75.46
2017-09-13T22:51:07.157Z,74.54
2017-09-13T22:53:33.405Z,74.52
2017-09-13T22:55:59.625Z,75.29
2017-09-13T22:58:25.854Z,75.75
2017-09-13T23:00:52.083Z,76.30
2017-09-13T23:03:18.295Z,76.69
2017-09-13T23:05:45.538Z,77.21
2017-09-13T23:08:11.802Z,76.99
2017-09-13T23:10:38.029Z,77.47
2017-09-13T23:13:04.247Z,77.68
2017-09-13T23:15:30.515Z,77.86
2017-09-13T23:17:56.707Z,77.69
2017-09-13T23:20:22.939Z,78.59
2017-09-13T23:22:49.162Z,78.89
2017-09-13T23:25:15.403Z,79.03
2017-09-13T23:27:41.633Z,79.24
2017-09-13T23:30:07.850Z,79.67
2017-09-13T23:32:34.084Z,79.84
2017-09-13T23:35:00.320Z,79.77
2017-09-13T23:37:26.552Z,80.16
2017-09-13T23:39:52.778Z,79.69
2017-09-13T23:42:19.006Z,80.41
2017-09-13T23:44:45.227Z,79.37
2017-09-13T23:47:11.474Z,78.61
2017-09-13T23:49:37.695Z,78.41
2017-09-13T23:52:03.911Z,78.42
2017-09-13T23:54:30.155Z,79.12
2017-09-13T23:56:56.386Z,79.72
2017-09-13T23:59:22.613Z,80.45
